Republica Dominicana

METAR

SADR31 MDSD 311300Z
METAR
 
METAR MDPP 311300Z 11010KT 9999 FEW018 24/21 Q1014=
METAR MDST 311300Z 10006KT 9999 SCT018 24/20 Q1015=
METAR MDPC 311300Z 09009KT 9999 FEW022 26/20 Q1016 NOSIG=
METAR MDBH 311300Z 00000KT 9999 FEW018 BKN080 25/22 Q1015=
METAR MDJB 311300Z 03006KT 9999 FEW018 26/22 Q1016=
METAR MDSD 311300Z 07007KT 020V110 9999 FEW018 25/21 Q1015
METAR MDLR 311300Z 07008KT 9999 FEW016 25/23 Q1015 NOSIG
METAR MDCY 311300Z 00000KT 9999 FEW018 23/21 Q1016=




Tamaño letra

Contraste

Otros